Time;durP1;ratioP1;P1;durP2;ratioP2;P2;SDS_P1;SDS_P2;PMS_P1;PMS_P2;Temp;Humidity;BMP_temperature;BMP_pressure;BME280_temperature;BME280_humidity;BME280_pressure;Samples;Min_cycle;Max_cycle;Signal;HPM_P1;HPM_P2
2024/02/11 00:01:36;;;;;;;21.35;19.27;;;9.60;99.90;;;;;;5069432;28;20040;-63
2024/02/11 00:04:02;;;;;;;21.70;19.60;;;9.60;99.90;;;;;;5092313;28;20115;-63
2024/02/11 00:06:28;;;;;;;23.23;20.85;;;9.60;99.90;;;;;;5058867;28;20047;-63
2024/02/11 00:08:54;;;;;;;23.33;20.80;;;9.60;99.90;;;;;;5092151;28;20036;-63
2024/02/11 00:11:19;;;;;;;23.83;21.52;;;9.60;99.90;;;;;;5073692;28;20371;-63
2024/02/11 00:13:45;;;;;;;22.85;20.67;;;9.60;99.90;;;;;;5091151;28;20059;-63
2024/02/11 00:16:11;;;;;;;22.90;20.67;;;9.60;99.90;;;;;;5076142;28;20043;-62
2024/02/11 00:18:37;;;;;;;24.67;22.27;;;9.60;99.90;;;;;;5075077;28;20459;-63
2024/02/11 00:21:04;;;;;;;23.83;21.42;;;9.60;99.90;;;;;;5092643;28;20049;-63
2024/02/11 00:23:30;;;;;;;24.50;22.10;;;9.60;99.90;;;;;;5095611;28;20032;-63
2024/02/11 00:25:56;;;;;;;24.40;21.95;;;9.70;99.90;;;;;;5094037;28;20103;-62
2024/02/11 00:28:23;;;;;;;25.20;22.70;;;9.70;99.90;;;;;;5068939;28;20612;-63
2024/02/11 00:30:49;;;;;;;24.80;22.40;;;9.70;99.90;;;;;;5090320;28;20035;-62
2024/02/11 00:33:19;;;;;;;24.45;22.05;;;9.70;99.90;;;;;;5101793;28;20539;-63
2024/02/11 00:35:45;;;;;;;24.25;21.92;;;9.70;99.90;;;;;;5065184;28;20044;-63
2024/02/11 00:38:13;;;;;;;26.30;23.60;;;9.70;99.90;;;;;;5091955;28;20048;-63
2024/02/11 00:40:38;;;;;;;26.45;24.02;;;9.70;99.90;;;;;;5109452;28;20479;-63
2024/02/11 00:43:07;;;;;;;25.23;22.65;;;9.70;99.90;;;;;;5072451;28;20040;-62
2024/02/11 00:45:33;;;;;;;26.05;23.63;;;9.80;99.90;;;;;;5075632;28;20115;-63
2024/02/11 00:48:02;;;;;;;26.17;23.48;;;9.70;99.90;;;;;;5090400;28;20504;-63
2024/02/11 00:50:31;;;;;;;26.27;23.50;;;9.80;99.90;;;;;;5078958;28;20055;-62
2024/02/11 00:52:57;;;;;;;26.50;23.77;;;9.70;99.90;;;;;;5057170;28;20489;-63
2024/02/11 00:55:23;;;;;;;23.88;21.48;;;9.80;99.90;;;;;;5074652;28;20078;-63
2024/02/11 00:57:49;;;;;;;25.20;22.70;;;9.80;99.90;;;;;;5111228;27;20078;-62
2024/02/11 01:00:15;;;;;;;25.38;22.85;;;9.70;99.90;;;;;;5078669;28;20040;-63
2024/02/11 01:02:42;;;;;;;24.63;22.17;;;9.80;99.90;;;;;;5096596;28;20863;-63
2024/02/11 01:05:10;;;;;;;26.08;23.15;;;9.80;99.90;;;;;;5095711;28;20414;-63
2024/02/11 01:07:40;;;;;;;24.92;22.42;;;9.70;99.90;;;;;;5093087;28;20088;-63
2024/02/11 01:10:14;;;;;;;25.23;22.73;;;9.70;99.90;;;;;;5093634;28;20400;-63
2024/02/11 01:12:41;;;;;;;26.05;23.25;;;9.70;99.90;;;;;;5095036;28;20080;-63
2024/02/11 01:15:12;;;;;;;25.50;22.80;;;9.80;99.90;;;;;;5099207;28;20066;-63
2024/02/11 01:17:38;;;;;;;24.83;22.27;;;9.70;99.90;;;;;;5091870;28;20112;-63
2024/02/11 01:20:06;;;;;;;25.50;22.83;;;9.70;99.90;;;;;;5096797;28;20145;-62
2024/02/11 01:22:33;;;;;;;24.58;22.10;;;9.70;99.90;;;;;;5095894;28;20036;-62
2024/02/11 01:24:58;;;;;;;22.50;20.30;;;9.90;99.90;;;;;;5077179;28;20063;-63
2024/02/11 01:27:24;;;;;;;24.25;21.63;;;9.70;99.90;;;;;;5077618;28;20040;-63
2024/02/11 01:29:50;;;;;;;23.23;20.58;;;9.80;99.90;;;;;;5094855;28;20176;-63
2024/02/11 01:32:16;;;;;;;22.80;20.40;;;9.80;99.90;;;;;;5105822;27;20397;-63
2024/02/11 01:34:41;;;;;;;23.92;21.58;;;9.70;99.90;;;;;;5076903;28;20043;-63
2024/02/11 01:37:07;;;;;;;23.85;21.40;;;9.80;99.90;;;;;;5079064;28;20040;-63
2024/02/11 01:39:33;;;;;;;24.25;21.65;;;9.70;99.90;;;;;;5076783;28;20043;-63
2024/02/11 01:42:03;;;;;;;24.50;20.83;;;9.70;99.90;;;;;;5097064;28;20032;-63
2024/02/11 01:44:28;;;;;;;23.33;20.65;;;9.70;99.90;;;;;;5078898;28;20088;-63
2024/02/11 01:46:55;;;;;;;23.08;20.58;;;9.70;99.90;;;;;;5080936;28;20130;-63
2024/02/11 01:49:22;;;;;;;22.58;20.38;;;9.80;99.90;;;;;;5109144;27;20058;-63
2024/02/11 01:51:49;;;;;;;21.63;19.42;;;9.80;99.90;;;;;;5064050;28;20039;-62
2024/02/11 01:54:16;;;;;;;21.85;19.65;;;9.70;99.90;;;;;;5077837;28;20052;-63
2024/02/11 01:56:42;;;;;;;21.52;19.33;;;9.70;99.90;;;;;;5080844;28;20048;-63
2024/02/11 01:59:09;;;;;;;21.70;19.50;;;9.70;99.90;;;;;;5093055;28;20035;-62
2024/02/11 02:01:36;;;;;;;20.92;18.83;;;9.80;99.90;;;;;;5076277;28;20040;-63
2024/02/11 02:04:01;;;;;;;21.67;19.38;;;9.80;99.90;;;;;;5077560;28;20048;-63
2024/02/11 02:06:28;;;;;;;22.38;20.08;;;9.70;99.90;;;;;;5076527;28;20036;-63
2024/02/11 02:08:53;;;;;;;22.15;19.55;;;9.70;99.90;;;;;;5090242;28;20042;-63
2024/02/11 02:11:20;;;;;;;24.40;20.63;;;9.70;99.90;;;;;;5094226;28;20032;-63
2024/02/11 02:13:46;;;;;;;20.70;18.58;;;9.70;99.90;;;;;;5075018;28;20051;-63
2024/02/11 02:16:11;;;;;;;21.92;18.90;;;9.60;99.90;;;;;;5076283;28;20032;-63
2024/02/11 02:18:37;;;;;;;20.60;18.50;;;9.70;99.90;;;;;;5075592;28;20047;-63
2024/02/11 02:21:06;;;;;;;21.05;18.95;;;9.70;99.90;;;;;;5094589;28;20040;-62
2024/02/11 02:23:32;;;;;;;21.58;19.23;;;9.60;99.90;;;;;;5077827;28;20036;-63
2024/02/11 02:26:08;;;;;;;20.55;18.13;;;9.60;99.90;;;;;;5088136;28;20089;-63
2024/02/11 02:28:34;;;;;;;24.27;18.60;;;9.60;99.90;;;;;;5107678;27;20169;-63
2024/02/11 02:31:00;;;;;;;22.45;18.08;;;9.60;99.90;;;;;;5077920;28;20523;-62
2024/02/11 02:33:26;;;;;;;19.90;17.73;;;9.70;99.90;;;;;;5075026;28;20655;-63
2024/02/11 02:35:54;;;;;;;23.17;18.67;;;9.60;99.90;;;;;;5078653;28;20036;-63
2024/02/11 02:38:20;;;;;;;21.60;18.02;;;9.70;99.90;;;;;;5075216;28;20518;-62
2024/02/11 02:40:45;;;;;;;21.38;18.90;;;9.60;99.90;;;;;;5073709;28;20032;-63
2024/02/11 02:43:11;;;;;;;22.67;19.60;;;9.60;99.90;;;;;;5076071;28;20038;-62
2024/02/11 02:45:38;;;;;;;20.73;17.95;;;9.60;99.90;;;;;;5077972;28;20048;-63
2024/02/11 02:48:05;;;;;;;21.98;18.40;;;9.60;99.90;;;;;;5105780;27;20051;-63
2024/02/11 02:50:31;;;;;;;21.85;18.90;;;9.50;99.90;;;;;;5108122;27;20044;-63
2024/02/11 02:52:56;;;;;;;24.05;17.45;;;9.60;99.90;;;;;;5073851;28;20062;-63
2024/02/11 02:55:22;;;;;;;21.52;18.58;;;9.60;99.90;;;;;;5075197;28;20374;-63
2024/02/11 02:57:47;;;;;;;24.02;19.42;;;9.50;99.90;;;;;;5074851;28;20044;-62
2024/02/11 03:00:15;;;;;;;23.70;19.25;;;9.50;99.90;;;;;;5077208;28;20492;-63
2024/02/11 03:02:40;;;;;;;23.05;19.15;;;9.50;99.90;;;;;;5091414;28;20054;-63
2024/02/11 03:05:06;;;;;;;22.70;17.73;;;9.50;99.90;;;;;;5073736;28;20489;-63
2024/02/11 03:07:33;;;;;;;24.52;18.45;;;9.50;99.90;;;;;;5076095;28;20074;-63
2024/02/11 03:10:00;;;;;;;22.45;18.80;;;9.50;99.90;;;;;;5073078;28;20039;-63
2024/02/11 03:12:26;;;;;;;24.42;19.50;;;9.50;99.90;;;;;;5095645;28;20036;-63
2024/02/11 03:14:51;;;;;;;24.25;18.23;;;9.50;99.90;;;;;;5092879;28;20035;-63
2024/02/11 03:17:17;;;;;;;23.92;18.60;;;9.50;99.90;;;;;;5096273;28;20048;-63
2024/02/11 03:19:43;;;;;;;25.60;18.75;;;9.50;99.90;;;;;;5108225;27;20044;-63
2024/02/11 03:22:13;;;;;;;25.15;18.92;;;9.50;99.90;;;;;;5073474;28;20043;-63
2024/02/11 03:24:39;;;;;;;26.52;18.23;;;9.50;99.90;;;;;;5105107;28;20502;-63
2024/02/11 03:27:05;;;;;;;24.10;18.15;;;9.40;99.90;;;;;;5090696;28;20074;-63
2024/02/11 03:29:32;;;;;;;28.15;19.58;;;9.50;99.90;;;;;;5091413;28;20036;-63
2024/02/11 03:31:57;;;;;;;27.23;17.60;;;9.40;99.90;;;;;;5092920;28;20600;-63
2024/02/11 03:34:25;;;;;;;25.75;18.30;;;9.40;99.90;;;;;;5072582;28;20036;-63
2024/02/11 03:36:51;;;;;;;24.52;18.52;;;9.40;99.90;;;;;;5091853;28;20040;-62
2024/02/11 03:39:19;;;;;;;26.92;17.45;;;9.40;99.90;;;;;;5107498;27;20371;-63
2024/02/11 03:41:45;;;;;;;25.48;17.58;;;9.40;99.90;;;;;;5094347;28;20046;-62
2024/02/11 03:44:10;;;;;;;28.35;18.85;;;9.40;99.90;;;;;;5092946;28;20039;-63
2024/02/11 03:46:36;;;;;;;30.23;17.83;;;9.40;99.90;;;;;;5074570;28;20471;-62
2024/02/11 03:49:02;;;;;;;26.73;17.67;;;9.40;99.90;;;;;;5074463;28;20028;-62
2024/02/11 03:51:28;;;;;;;24.88;17.63;;;9.40;99.90;;;;;;5093073;28;20564;-62
2024/02/11 03:53:53;;;;;;;25.70;17.95;;;9.50;99.90;;;;;;5072140;28;20489;-63
2024/02/11 03:56:22;;;;;;;31.50;18.50;;;9.40;99.90;;;;;;5094100;28;20036;-63
2024/02/11 03:58:49;;;;;;;25.55;16.63;;;9.40;99.90;;;;;;5070878;28;20478;-63
2024/02/11 04:01:16;;;;;;;27.95;18.38;;;9.40;99.90;;;;;;5076977;28;20047;-63
2024/02/11 04:03:42;;;;;;;25.35;18.08;;;9.40;99.90;;;;;;5089822;28;20649;-63
2024/02/11 04:06:09;;;;;;;29.30;18.33;;;9.40;99.90;;;;;;5075988;28;20102;-63
2024/02/11 04:08:35;;;;;;;29.17;18.35;;;9.40;99.90;;;;;;5095091;28;20084;-63
2024/02/11 04:11:01;;;;;;;26.63;16.85;;;9.40;99.90;;;;;;5092207;28;20417;-62
2024/02/11 04:13:27;;;;;;;29.42;16.77;;;9.40;99.90;;;;;;5097985;28;20052;-63
2024/02/11 04:15:56;;;;;;;29.65;17.77;;;9.30;99.90;;;;;;5076596;28;20491;-63
2024/02/11 04:18:25;;;;;;;27.85;17.73;;;9.30;99.90;;;;;;5075015;28;20059;-63
2024/02/11 04:20:54;;;;;;;30.73;18.38;;;9.40;99.90;;;;;;5073498;28;20036;-63
2024/02/11 04:23:20;;;;;;;28.40;17.02;;;9.40;99.90;;;;;;5093616;28;20111;-63
2024/02/11 04:25:46;;;;;;;30.33;17.92;;;9.30;99.90;;;;;;5094576;28;20055;-63
2024/02/11 04:28:11;;;;;;;28.92;17.80;;;9.40;99.90;;;;;;5081352;28;20032;-63
2024/02/11 04:30:38;;;;;;;31.55;18.83;;;9.40;99.90;;;;;;5095172;28;20493;-63
2024/02/11 04:33:04;;;;;;;28.30;17.08;;;9.40;99.90;;;;;;5098136;28;20047;-63
2024/02/11 04:35:31;;;;;;;30.42;17.48;;;9.30;99.90;;;;;;5077038;28;21415;-63
2024/02/11 04:37:59;;;;;;;30.73;17.50;;;9.30;99.90;;;;;;5079805;28;20044;-62
2024/02/11 04:40:25;;;;;;;29.73;17.27;;;9.40;99.90;;;;;;5080231;28;20050;-63
2024/02/11 04:42:56;;;;;;;30.90;18.33;;;9.30;99.90;;;;;;5080572;28;20043;-63
2024/02/11 04:45:23;;;;;;;33.92;19.15;;;9.30;99.90;;;;;;5107492;27;20047;-63
2024/02/11 04:47:53;;;;;;;32.25;19.10;;;9.40;99.90;;;;;;5095270;28;20105;-63
2024/02/11 04:50:21;;;;;;;31.08;18.60;;;9.30;99.90;;;;;;5107779;27;20041;-63
2024/02/11 04:52:54;;;;;;;31.73;19.13;;;9.40;99.90;;;;;;5077962;28;20130;-63
2024/02/11 04:55:43;;;;;;;39.75;19.58;;;9.40;99.90;;;;;;5078009;28;20043;-63
2024/02/11 04:58:18;;;;;;;33.88;19.40;;;9.30;99.90;;;;;;5095122;28;20059;-62
2024/02/11 05:00:48;;;;;;;;;;;9.30;99.90;;;;;;5096532;28;20498;-63
2024/02/11 05:03:17;;;;;;;36.55;20.60;;;9.40;99.90;;;;;;5075348;28;19916;-63
2024/02/11 05:05:43;;;;;;;38.60;20.75;;;9.30;99.90;;;;;;5077643;28;20044;-63
2024/02/11 05:08:10;;;;;;;43.15;21.80;;;9.40;99.90;;;;;;5088763;28;20043;-63
2024/02/11 05:10:37;;;;;;;42.22;20.45;;;9.40;99.90;;;;;;5096218;28;20044;-63
2024/02/11 05:13:08;;;;;;;42.20;21.63;;;9.30;99.90;;;;;;5095782;28;20386;-63
2024/02/11 05:15:38;;;;;;;43.15;22.45;;;9.30;99.90;;;;;;5078040;28;20040;-63
2024/02/11 05:18:11;;;;;;;45.50;23.25;;;9.30;99.90;;;;;;5094223;28;20036;-63
2024/02/11 05:20:38;;;;;;;44.88;23.70;;;9.30;99.90;;;;;;5079232;28;20036;-63
2024/02/11 05:23:09;;;;;;;51.60;25.02;;;9.30;99.90;;;;;;5110045;27;20083;-63
2024/02/11 05:25:35;;;;;;;49.20;25.33;;;9.30;99.90;;;;;;5075850;28;20032;-63
2024/02/11 05:28:05;;;;;;;51.25;24.88;;;9.30;99.90;;;;;;5093974;28;20486;-63
2024/02/11 05:30:34;;;;;;;48.90;25.38;;;9.30;99.90;;;;;;5077676;28;20047;-63
2024/02/11 05:33:02;;;;;;;49.42;24.98;;;9.30;99.90;;;;;;5091115;28;20524;-63
2024/02/11 05:35:28;;;;;;;57.30;25.52;;;9.30;99.90;;;;;;5105294;27;20047;-63
2024/02/11 05:37:57;;;;;;;59.55;27.55;;;9.30;99.90;;;;;;5076475;28;20048;-63
2024/02/11 05:40:31;;;;;;;61.42;27.60;;;9.30;99.90;;;;;;5091704;28;20452;-63
2024/02/11 05:43:01;;;;;;;59.65;26.65;;;9.30;99.90;;;;;;5062008;28;20036;-63
2024/02/11 05:45:27;;;;;;;63.00;27.38;;;9.30;99.90;;;;;;5077976;28;20118;-63
2024/02/11 05:47:54;;;;;;;67.80;28.60;;;9.20;99.90;;;;;;5076224;28;20378;-63
2024/02/11 05:50:21;;;;;;;61.80;26.50;;;9.30;99.90;;;;;;5076131;28;20051;-62
2024/02/11 05:52:47;;;;;;;64.60;28.58;;;9.30;99.90;;;;;;5097934;28;20035;-63
2024/02/11 05:55:18;;;;;;;67.85;27.42;;;9.20;99.90;;;;;;5097351;28;20040;-63
2024/02/11 05:57:45;;;;;;;78.55;29.63;;;9.20;99.90;;;;;;5064084;28;20119;-63
2024/02/11 06:00:12;;;;;;;69.72;30.35;;;9.20;99.90;;;;;;5076797;28;20106;-63
2024/02/11 06:02:49;;;;;;;77.93;31.92;;;9.20;99.90;;;;;;5081070;28;20046;-63
2024/02/11 06:05:16;;;;;;;69.57;30.67;;;9.20;99.90;;;;;;5086039;28;20038;-62
2024/02/11 06:07:43;;;;;;;74.75;30.42;;;9.20;99.90;;;;;;5095487;28;20562;-63
2024/02/11 06:10:13;;;;;;;86.88;32.80;;;9.20;99.90;;;;;;5070313;28;20044;-63
2024/02/11 06:12:39;;;;;;;78.15;31.75;;;9.20;99.90;;;;;;5095620;28;20044;-63
2024/02/11 06:15:20;;;;;;;79.13;31.13;;;9.30;99.90;;;;;;5079296;28;20036;-63
2024/02/11 06:17:47;;;;;;;83.50;32.00;;;9.20;99.90;;;;;;5108407;27;20493;-63
2024/02/11 06:20:14;;;;;;;89.57;32.95;;;9.20;99.90;;;;;;5077864;28;20490;-63
2024/02/11 06:22:43;;;;;;;87.13;32.90;;;9.30;99.90;;;;;;5074604;28;20442;-63
2024/02/11 06:25:11;;;;;;;99.32;34.85;;;9.20;99.90;;;;;;5070299;28;20102;-63
2024/02/11 06:27:40;;;;;;;99.85;34.55;;;9.20;99.90;;;;;;5069114;28;20097;-63
2024/02/11 06:30:11;;;;;;;96.57;34.25;;;9.20;99.90;;;;;;5076738;28;20106;-63
2024/02/11 06:32:39;;;;;;;96.05;34.83;;;9.20;99.90;;;;;;5074911;28;20059;-62
2024/02/11 06:35:06;;;;;;;98.55;36.60;;;9.10;99.90;;;;;;5068150;28;20512;-63
2024/02/11 06:37:32;;;;;;;93.15;34.58;;;9.10;99.90;;;;;;5074403;28;20545;-63
2024/02/11 06:39:58;;;;;;;98.85;36.83;;;9.20;99.90;;;;;;5091348;28;20043;-62
2024/02/11 06:42:26;;;;;;;91.90;35.40;;;9.10;99.90;;;;;;5074042;28;20040;-63
2024/02/11 06:44:53;;;;;;;105.78;37.58;;;9.20;99.90;;;;;;5093449;28;20040;-63
2024/02/11 06:47:19;;;;;;;96.88;36.95;;;9.20;99.90;;;;;;5103775;27;20068;-63
2024/02/11 06:49:45;;;;;;;98.43;36.33;;;9.20;99.90;;;;;;5093406;28;20039;-63
2024/02/11 06:52:11;;;;;;;94.97;38.28;;;9.20;99.90;;;;;;5075807;28;20089;-63
2024/02/11 06:54:38;;;;;;;98.22;37.28;;;9.20;99.90;;;;;;5094896;28;20051;-63
2024/02/11 06:57:07;;;;;;;96.15;36.22;;;9.20;99.90;;;;;;5070035;28;20051;-63
2024/02/11 06:59:33;;;;;;;95.38;38.17;;;9.20;99.90;;;;;;5071128;28;20040;-63
2024/02/11 07:02:00;;;;;;;94.18;37.95;;;9.20;99.90;;;;;;5096169;27;20031;-63
2024/02/11 07:04:27;;;;;;;90.80;37.10;;;9.30;99.90;;;;;;5076724;28;20089;-63
2024/02/11 07:06:53;;;;;;;99.20;39.47;;;9.20;99.90;;;;;;5072214;28;20177;-63
2024/02/11 07:09:22;;;;;;;88.57;38.10;;;9.30;99.90;;;;;;5079532;28;20043;-63
2024/02/11 07:11:49;;;;;;;94.70;40.17;;;9.20;99.90;;;;;;5092458;28;20509;-63
2024/02/11 07:14:21;;;;;;;92.60;38.08;;;9.30;99.90;;;;;;5095447;28;20039;-63
2024/02/11 07:16:49;;;;;;;83.03;37.80;;;9.20;99.90;;;;;;5093071;28;20101;-63
2024/02/11 07:19:15;;;;;;;82.85;36.38;;;9.20;99.90;;;;;;5074067;28;20044;-63
2024/02/11 07:21:41;;;;;;;88.32;37.45;;;9.20;99.90;;;;;;5080068;28;20031;-63
2024/02/11 07:24:07;;;;;;;80.45;37.35;;;9.30;99.90;;;;;;5095878;28;20459;-63
2024/02/11 07:26:36;;;;;;;75.18;35.95;;;9.30;99.90;;;;;;5085749;28;20032;-63
2024/02/11 07:29:08;;;;;;;81.07;38.28;;;9.30;99.90;;;;;;5091857;28;20032;-63
2024/02/11 07:31:35;;;;;;;87.30;37.90;;;9.30;99.90;;;;;;5076367;28;20048;-63
2024/02/11 07:34:02;;;;;;;87.38;38.30;;;9.30;99.90;;;;;;5072173;28;20040;-63
2024/02/11 07:36:28;;;;;;;78.70;38.72;;;9.30;99.90;;;;;;5075652;28;20055;-63
2024/02/11 07:38:57;;;;;;;72.70;36.80;;;9.30;99.90;;;;;;5068021;28;20076;-63
2024/02/11 07:41:23;;;;;;;80.72;39.00;;;9.30;99.90;;;;;;5071426;28;20619;-63
2024/02/11 07:43:49;;;;;;;83.25;37.72;;;9.40;99.90;;;;;;5089490;28;20032;-62
2024/02/11 07:46:16;;;;;;;78.93;38.15;;;9.40;99.90;;;;;;5071949;28;21517;-63
2024/02/11 07:48:42;;;;;;;79.53;39.13;;;9.40;99.90;;;;;;5072788;28;20044;-63
2024/02/11 07:51:08;;;;;;;74.78;35.55;;;9.40;99.90;;;;;;5076089;28;20050;-62
2024/02/11 07:53:33;;;;;;;78.43;36.40;;;9.40;99.90;;;;;;5075307;28;20444;-63
2024/02/11 07:56:00;;;;;;;70.18;35.90;;;9.40;99.90;;;;;;5075307;28;20050;-63
2024/02/11 07:58:25;;;;;;;69.15;36.42;;;9.40;99.90;;;;;;5079898;28;20047;-63
2024/02/11 08:00:51;;;;;;;70.85;35.65;;;9.40;99.90;;;;;;5078307;28;20447;-63
2024/02/11 08:03:16;;;;;;;75.47;35.05;;;9.40;99.90;;;;;;5097688;28;20036;-63
2024/02/11 08:05:42;;;;;;;66.38;35.28;;;9.40;99.90;;;;;;5082457;28;20060;-63
2024/02/11 08:08:17;;;;;;;67.85;36.58;;;9.40;99.90;;;;;;5095314;28;20576;-63
2024/02/11 08:10:43;;;;;;;69.15;34.92;;;9.40;99.90;;;;;;5078120;28;20043;-63
2024/02/11 08:13:09;;;;;;;71.68;35.50;;;9.40;99.90;;;;;;5081855;28;20771;-63
2024/02/11 08:15:37;;;;;;;68.63;34.47;;;9.40;99.90;;;;;;5111064;27;20063;-63
2024/02/11 08:18:08;;;;;;;73.15;35.90;;;9.40;99.90;;;;;;5075445;28;20064;-63
2024/02/11 08:20:34;;;;;;;73.70;37.10;;;9.50;99.90;;;;;;5072583;28;20044;-63
2024/02/11 08:23:00;;;;;;;69.13;36.28;;;9.40;99.90;;;;;;5092110;28;20101;-63
2024/02/11 08:25:25;;;;;;;61.75;34.75;;;9.40;99.90;;;;;;5068183;28;20048;-63
2024/02/11 08:27:51;;;;;;;65.82;35.28;;;9.40;99.90;;;;;;5073961;28;20044;-63
2024/02/11 08:30:17;;;;;;;66.07;34.97;;;9.40;99.90;;;;;;5089817;28;20058;-62
2024/02/11 08:32:42;;;;;;;63.15;34.33;;;9.30;99.90;;;;;;5093307;28;20403;-62
2024/02/11 08:35:09;;;;;;;58.92;34.70;;;9.40;99.90;;;;;;5076950;28;20051;-63
2024/02/11 08:37:35;;;;;;;53.35;35.10;;;9.50;99.90;;;;;;5070102;28;20048;-62
2024/02/11 08:40:02;;;;;;;56.08;34.42;;;9.50;99.90;;;;;;5109696;27;20898;-62
2024/02/11 08:42:27;;;;;;;59.80;36.20;;;9.50;99.90;;;;;;5092308;28;20555;-62
2024/02/11 08:44:56;;;;;;;52.10;33.92;;;9.50;99.90;;;;;;5095155;28;20123;-62
2024/02/11 08:47:24;;;;;;;58.67;35.40;;;9.60;99.90;;;;;;5073549;28;20101;-62
2024/02/11 08:49:50;;;;;;;55.13;32.95;;;9.60;99.90;;;;;;5077353;28;20076;-63
2024/02/11 08:52:16;;;;;;;52.72;32.50;;;9.70;99.90;;;;;;5078374;28;20055;-63
2024/02/11 08:54:42;;;;;;;54.35;34.80;;;9.70;99.90;;;;;;5078156;28;20036;-62
2024/02/11 08:57:09;;;;;;;51.72;33.15;;;9.80;99.90;;;;;;5107571;27;20082;-62
2024/02/11 08:59:38;;;;;;;51.42;32.92;;;9.70;99.90;;;;;;5078202;28;20472;-62
2024/02/11 09:02:04;;;;;;;51.10;31.70;;;9.60;99.90;;;;;;5083281;28;20035;-62
2024/02/11 09:04:30;;;;;;;52.78;33.50;;;9.70;99.90;;;;;;5093716;28;20032;-62
2024/02/11 09:06:57;;;;;;;47.28;31.83;;;9.70;99.90;;;;;;5076464;28;20129;-63
2024/02/11 09:09:26;;;;;;;49.45;33.38;;;9.70;99.90;;;;;;5069898;28;20044;-62
2024/02/11 09:11:56;;;;;;;45.78;31.63;;;9.80;99.90;;;;;;5075105;28;20125;-62
2024/02/11 09:14:25;;;;;;;47.45;32.47;;;9.80;99.90;;;;;;5063158;28;20506;-63
2024/02/11 09:17:00;;;;;;;46.47;31.98;;;9.80;99.90;;;;;;5096825;28;20032;-62
2024/02/11 09:19:29;;;;;;;40.85;31.45;;;9.90;99.90;;;;;;5096658;28;20647;-62
2024/02/11 09:21:59;;;;;;;39.60;28.40;;;9.90;99.90;;;;;;5105728;27;20055;-62
2024/02/11 09:24:25;;;;;;;42.58;29.90;;;9.90;99.90;;;;;;5077170;28;20078;-62
2024/02/11 09:26:54;;;;;;;40.10;30.55;;;9.90;99.90;;;;;;5111172;27;20162;-62
2024/02/11 09:29:22;;;;;;;41.17;30.67;;;10.00;99.90;;;;;;5097578;28;20038;-62
2024/02/11 09:31:49;;;;;;;40.22;29.45;;;10.00;99.90;;;;;;5076958;28;20047;-62
2024/02/11 09:34:15;;;;;;;37.80;28.65;;;10.00;99.90;;;;;;5089660;28;20109;-62
2024/02/11 09:36:41;;;;;;;36.40;28.60;;;10.00;99.90;;;;;;5070765;28;20032;-62
2024/02/11 09:39:10;;;;;;;37.45;28.05;;;10.00;99.90;;;;;;5071265;28;20062;-62
2024/02/11 09:41:37;;;;;;;35.08;27.40;;;10.00;99.90;;;;;;5077197;28;20162;-62
2024/02/11 09:44:04;;;;;;;35.08;28.23;;;10.00;99.90;;;;;;5075415;28;20358;-62
2024/02/11 09:46:37;;;;;;;37.47;27.70;;;10.00;99.90;;;;;;5074378;28;20036;-62
2024/02/11 09:49:16;;;;;;;33.20;27.85;;;10.00;99.90;;;;;;5093621;28;20132;-62
2024/02/11 09:51:45;;;;;;;34.25;26.98;;;10.00;99.90;;;;;;5077458;28;20440;-62
2024/02/11 09:54:13;;;;;;;34.10;27.75;;;10.00;99.90;;;;;;5076206;28;20422;-62
2024/02/11 09:56:39;;;;;;;35.65;28.02;;;10.00;99.90;;;;;;5110242;27;20119;-62
2024/02/11 09:59:05;;;;;;;35.40;27.88;;;10.00;99.90;;;;;;5092940;28;20032;-62
2024/02/11 10:01:33;;;;;;;34.50;27.60;;;10.00;99.90;;;;;;5094275;28;20047;-62
2024/02/11 10:04:04;;;;;;;31.83;26.98;;;10.00;99.90;;;;;;5093380;28;20047;-62
2024/02/11 10:06:34;;;;;;;36.83;27.67;;;10.00;99.90;;;;;;5078214;28;20080;-62
2024/02/11 10:08:59;;;;;;;31.08;25.92;;;10.00;99.90;;;;;;5075895;28;20036;-62
2024/02/11 10:11:27;;;;;;;34.10;28.38;;;10.00;99.90;;;;;;5076161;28;20104;-62
2024/02/11 10:13:58;;;;;;;31.67;26.77;;;10.00;99.90;;;;;;5094514;28;20071;-62
2024/02/11 10:16:26;;;;;;;31.50;25.85;;;10.00;99.90;;;;;;5078283;28;20055;-62
2024/02/11 10:18:53;;;;;;;28.33;25.27;;;10.00;99.90;;;;;;5077458;28;20524;-62
2024/02/11 10:21:18;;;;;;;28.27;24.17;;;10.10;99.90;;;;;;5081325;28;20047;-62
2024/02/11 10:23:45;;;;;;;29.98;24.58;;;10.10;99.90;;;;;;5075176;28;20035;-62
2024/02/11 10:26:12;;;;;;;28.75;22.85;;;10.00;99.90;;;;;;5093789;28;20415;-62
2024/02/11 10:28:39;;;;;;;25.65;21.33;;;10.10;99.90;;;;;;5073817;28;20063;-62
2024/02/11 10:31:06;;;;;;;24.52;21.65;;;10.00;99.90;;;;;;5076886;28;20040;-62
2024/02/11 10:33:35;;;;;;;27.38;21.45;;;10.00;99.90;;;;;;5072709;28;20036;-62
2024/02/11 10:36:06;;;;;;;22.50;19.23;;;10.00;99.90;;;;;;5074091;28;20048;-62
2024/02/11 10:38:33;;;;;;;21.27;18.45;;;10.00;99.90;;;;;;5085455;28;20529;-62
2024/02/11 10:41:03;;;;;;;21.95;18.38;;;10.00;99.90;;;;;;5074850;28;20028;-62
2024/02/11 10:43:33;;;;;;;19.02;16.48;;;10.00;99.90;;;;;;5072764;28;20040;-62
2024/02/11 10:46:01;;;;;;;17.10;14.93;;;9.90;99.90;;;;;;5072416;28;20047;-62
2024/02/11 10:48:27;;;;;;;13.18;9.60;;;10.00;99.90;;;;;;5064611;28;20508;-62
2024/02/11 10:51:15;;;;;;;6.47;5.88;;;9.80;99.90;;;;;;5094213;28;20055;-62
2024/02/11 10:53:46;;;;;;;6.80;6.13;;;9.80;99.90;;;;;;5087565;28;20032;-62
2024/02/11 10:56:14;;;;;;;4.68;4.00;;;9.70;99.90;;;;;;5076892;28;20126;-62
2024/02/11 10:58:51;;;;;;;5.57;4.60;;;9.60;99.90;;;;;;5092135;28;20413;-62
2024/02/11 11:01:20;;;;;;;5.65;5.15;;;9.50;99.90;;;;;;5074347;28;20047;-62
2024/02/11 11:03:49;;;;;;;5.20;4.70;;;9.50;99.90;;;;;;5100704;27;20048;-62
2024/02/11 11:06:18;;;;;;;3.83;3.40;;;9.30;99.90;;;;;;5091058;28;20040;-62
2024/02/11 11:08:45;;;;;;;3.97;3.35;;;9.20;99.90;;;;;;5088738;28;20044;-62
2024/02/11 11:11:23;;;;;;;4.15;3.00;;;9.20;99.90;;;;;;5092815;28;20043;-62
2024/02/11 11:13:50;;;;;;;2.60;2.38;;;9.20;99.90;;;;;;5074373;28;20047;-62
2024/02/11 11:16:42;;;;;;;3.08;2.10;;;9.10;99.90;;;;;;5078223;28;20508;-62
2024/02/11 11:19:13;;;;;;;3.72;2.03;;;9.10;99.90;;;;;;5074660;28;20044;-62
2024/02/11 11:21:50;;;;;;;3.78;1.73;;;9.10;99.90;;;;;;5066626;28;20040;-62
2024/02/11 11:24:17;;;;;;;3.35;1.83;;;9.10;99.90;;;;;;5073475;28;20101;-62
2024/02/11 11:26:53;;;;;;;4.97;1.70;;;9.10;99.90;;;;;;5073859;28;20036;-62
2024/02/11 11:29:23;;;;;;;3.40;1.88;;;9.10;99.90;;;;;;5056049;28;20559;-62
2024/02/11 11:31:52;;;;;;;4.25;1.73;;;9.20;99.90;;;;;;5104976;27;20044;-62
2024/02/11 11:34:18;;;;;;;2.13;1.83;;;9.20;99.90;;;;;;5092373;28;20039;-62
2024/02/11 11:36:43;;;;;;;7.13;2.30;;;9.30;99.90;;;;;;5073254;28;20040;-62
2024/02/11 11:39:13;;;;;;;4.07;1.60;;;9.20;99.90;;;;;;5107583;27;20031;-62
2024/02/11 11:41:39;;;;;;;8.38;2.10;;;9.30;99.90;;;;;;5067894;28;20135;-62
2024/02/11 11:44:05;;;;;;;3.58;1.73;;;9.20;99.90;;;;;;5090813;28;20106;-62
2024/02/11 11:46:32;;;;;;;7.63;2.17;;;9.30;99.90;;;;;;5074357;28;20040;-62
2024/02/11 11:48:58;;;;;;;4.10;1.48;;;9.30;99.90;;;;;;5069286;28;20282;-62
2024/02/11 11:51:24;;;;;;;4.75;1.42;;;9.30;99.90;;;;;;5102789;27;20090;-62
2024/02/11 11:53:51;;;;;;;6.63;1.52;;;9.30;99.90;;;;;;5102278;28;20040;-62
2024/02/11 11:56:18;;;;;;;3.53;1.10;;;9.30;99.90;;;;;;5089597;28;20085;-62
2024/02/11 11:58:48;;;;;;;6.00;1.50;;;9.40;99.90;;;;;;5091113;28;20039;-62
2024/02/11 12:01:16;;;;;;;5.88;1.60;;;9.30;99.90;;;;;;5073915;28;20064;-62
2024/02/11 12:03:43;;;;;;;3.72;1.48;;;9.30;99.90;;;;;;5070970;28;20130;-62
2024/02/11 12:06:09;;;;;;;5.50;1.65;;;9.30;99.90;;;;;;5107207;28;20043;-62
2024/02/11 12:08:36;;;;;;;5.75;1.70;;;9.30;99.90;;;;;;5056447;28;20055;-62
2024/02/11 12:11:03;;;;;;;3.40;1.40;;;9.30;99.90;;;;;;5048808;28;20036;-62
2024/02/11 12:13:33;;;;;;;4.28;1.50;;;9.30;99.90;;;;;;5093482;28;20414;-62
2024/02/11 12:16:08;;;;;;;6.20;1.60;;;9.30;99.90;;;;;;5073186;28;20126;-62
2024/02/11 12:18:40;;;;;;;6.13;1.50;;;9.30;99.90;;;;;;5074882;28;20063;-62
2024/02/11 12:21:07;;;;;;;3.90;2.13;;;9.30;99.90;;;;;;5074217;28;20427;-62
2024/02/11 12:23:33;;;;;;;4.05;1.63;;;9.40;99.90;;;;;;5092333;28;20111;-62
2024/02/11 12:26:00;;;;;;;5.75;2.13;;;9.40;99.90;;;;;;5076944;28;20036;-62
2024/02/11 12:28:27;;;;;;;5.90;2.17;;;9.40;99.90;;;;;;5077524;28;20051;-62
2024/02/11 12:31:08;;;;;;;4.93;2.60;;;9.50;99.90;;;;;;5102739;28;20072;-62
2024/02/11 12:33:45;;;;;;;6.30;2.60;;;9.50;99.90;;;;;;5073583;28;20508;-62
2024/02/11 12:36:13;;;;;;;4.57;3.05;;;9.60;99.90;;;;;;5075847;28;20385;-62
2024/02/11 12:38:50;;;;;;;8.90;2.97;;;9.60;99.90;;;;;;5073020;28;20054;-62
2024/02/11 12:41:17;;;;;;;5.90;3.33;;;9.70;99.90;;;;;;5072691;28;20611;-62